Lebanon, CT (06249)

5:53 PM EST on January 26, 2015 (GMT -0500)
Yantic River | Change Station
CLOSE
Current Station
Personal Weather Station
Location: Bozrah, CT
Elevation: 364 ft
Nearby Weather Stations
Active Advisory: Blizzard Warning Active Notice: Public Information Statement

Elev 364 ft 41.57 °N, 72.18 °W | Updated 9 seconds ago

Snow
Snow
22.3 °F
Feels Like 22 °F
N
1.0
Wind Variable Wind from SSE
Gusts 4.0 mph

Today
High -- | Low -- °F
--% Chance of Precip.
Yesterday
High -- | Low -- °F
Precip. -- in
7:06 AM 4:56 PM
Waxing Crescent, 47% visible
Pressure 29.96 in
Visibility 1.5 miles
Clouds Overcast 2700 ft
Windchill 22 °F
Dew Point 20 °F
Humidity 91%
Rainfall 0.00 in
Snow Depth Not available.
UV 0 out of 12
Pollen .10 out of 12
Air Quality Not available.
Flu Activity Not available.
SPECI KIJD 262201Z AUTO 03009KT 1 1/2SM -SN OVC027 M05/M08 A2996 RMK AO2 P0000 T10501078

More Conditions Fewer Conditions

Pressure 29.96 in
Visibility 1.5 miles
Clouds Overcast 2700 ft
Windchill 22 °F
Dew Point 20 °F
Humidity 91%
Rainfall 0.00 in
Snow Depth Not available.
UV 0 out of 12
Pollen .10 out of 12
Air Quality Not available.
Flu Activity Not available.
SPECI KIJD 262201Z AUTO 03009KT 1 1/2SM -SN OVC027 M05/M08 A2996 RMK AO2 P0000 T10501078

More Conditions Fewer Conditions

10-Day Weather Forecast

Almanac

Astronomy

Jan. 26, 2015 Rise Set
Actual Time
Civil Twilight
Nautical Twilight
Astronomical Twilight
Moon
Length of Visible Light
Length of Day
Tomorrow will be .
, % of the Moon is Illuminated

Today's Extremes

State Highs State Lows

Community

WunderPhotos

Upload Photos

1,790,387 photos uploaded!

WunderBlogs® & News

Nearby

Air Quality

  Air Quality AQ Index Pollutant
Not available.

Snow Depth

Station Depth Elevation

Earthquake Activity

City Distance Mag. Time & Date
Minimum magnitude displayed is 2.5.

Coastal Water Temperatures

Place Temperature

Nearby Weather Stations